Time,TemperatureF,DewpointF,PressureIn,WindDirection,WindDirectionDegrees,WindSpeedMPH,WindSpeedGustMPH,Humidity,HourlyPrecipIn,Conditions,Clouds,dailyrainin,SoftwareType,DateUTC
2013-04-09 00:00:00,47.5,41.0,30.09,North,0,0.0,0.0,78,0.00,,,0.04,WUHU216HW,2013-04-09 07:00:00,
2013-04-09 00:05:00,47.7,40.8,30.09,North,0,0.0,0.0,77,0.00,,,0.00,WUHU216HW,2013-04-09 07:05:00,
2013-04-09 00:10:00,47.7,40.4,30.09,North,0,0.0,0.0,76,0.00,,,0.00,WUHU216HW,2013-04-09 07:10:00,
2013-04-09 00:15:00,47.7,40.4,30.09,North,0,0.0,0.0,76,0.00,,,0.00,WUHU216HW,2013-04-09 07:15:00,
2013-04-09 00:20:00,47.7,41.5,30.09,North,0,0.0,0.0,79,0.00,,,0.00,WUHU216HW,2013-04-09 07:20:00,
2013-04-09 00:25:00,47.7,41.1,30.10,North,0,0.0,0.0,78,0.00,,,0.00,WUHU216HW,2013-04-09 07:25:00,
2013-04-09 00:30:00,47.9,42.3,30.10,North,0,0.0,0.0,81,0.00,,,0.00,WUHU216HW,2013-04-09 07:30:00,
2013-04-09 00:35:00,47.9,42.3,30.10,North,0,0.0,0.0,81,0.00,,,0.00,WUHU216HW,2013-04-09 07:35:00,
2013-04-09 00:40:00,47.9,42.3,30.09,North,0,0.0,0.0,81,0.00,,,0.00,WUHU216HW,2013-04-09 07:40:00,
2013-04-09 00:45:00,47.9,42.9,30.10,North,0,0.0,0.0,83,0.00,,,0.00,WUHU216HW,2013-04-09 07:45:00,
2013-04-09 00:50:00,47.5,41.9,30.10,North,0,0.0,0.0,81,0.00,,,0.00,WUHU216HW,2013-04-09 07:50:00,
2013-04-09 00:55:00,47.3,42.1,30.10,North,0,0.0,0.0,82,0.00,,,0.00,WUHU216HW,2013-04-09 07:55:00,
2013-04-09 01:00:00,47.3,42.5,30.10,North,0,0.0,0.0,83,0.00,,,0.00,WUHU216HW,2013-04-09 08:00:00,
2013-04-09 01:05:00,47.3,42.8,30.10,North,0,0.0,0.0,84,0.00,,,0.00,WUHU216HW,2013-04-09 08:05:00,
2013-04-09 01:10:00,47.3,43.0,30.10,North,0,0.0,0.0,85,0.00,,,0.00,WUHU216HW,2013-04-09 08:10:00,
2013-04-09 01:15:00,47.2,42.3,30.10,North,0,0.0,0.0,83,0.00,,,0.00,WUHU216HW,2013-04-09 08:15:00,
2013-04-09 01:20:00,47.0,42.4,30.10,North,0,0.0,0.0,84,0.00,,,0.00,WUHU216HW,2013-04-09 08:20:00,
2013-04-09 01:25:00,46.6,42.0,30.10,North,0,0.0,0.0,84,0.00,,,0.00,WUHU216HW,2013-04-09 08:25:00,
2013-04-09 01:30:00,46.4,42.2,30.10,North,0,0.0,0.0,85,0.00,,,0.00,WUHU216HW,2013-04-09 08:30:00,
2013-04-09 01:35:00,46.4,42.5,30.10,North,0,0.0,0.0,86,0.00,,,0.00,WUHU216HW,2013-04-09 08:35:00,
2013-04-09 01:40:00,46.4,42.5,30.10,North,0,0.0,0.0,86,0.00,,,0.00,WUHU216HW,2013-04-09 08:40:00,
2013-04-09 01:45:00,46.3,42.3,30.10,North,0,0.0,0.0,86,0.00,,,0.00,WUHU216HW,2013-04-09 08:45:00,
2013-04-09 01:50:00,46.4,42.9,30.10,North,0,0.0,0.0,87,0.00,,,0.00,WUHU216HW,2013-04-09 08:50:00,
2013-04-09 01:55:00,46.4,42.9,30.10,North,0,0.0,0.0,87,0.00,,,0.00,WUHU216HW,2013-04-09 08:55:00,
2013-04-09 02:00:00,46.4,42.9,30.10,North,0,0.0,0.0,87,0.00,,,0.00,WUHU216HW,2013-04-09 09:00:00,
2013-04-09 02:05:00,46.6,42.7,30.10,North,0,0.0,0.0,86,0.00,,,0.00,WUHU216HW,2013-04-09 09:05:00,
2013-04-09 02:10:00,46.6,42.7,30.10,North,0,0.0,0.0,86,0.00,,,0.00,WUHU216HW,2013-04-09 09:10:00,
2013-04-09 02:15:00,46.6,42.7,30.10,North,0,0.0,0.0,86,0.00,,,0.00,WUHU216HW,2013-04-09 09:15:00,
2013-04-09 02:20:00,46.4,42.9,30.10,North,0,0.0,0.0,87,0.00,,,0.00,WUHU216HW,2013-04-09 09:20:00,
2013-04-09 02:25:00,46.4,42.9,30.10,North,0,0.0,0.0,87,0.00,,,0.00,WUHU216HW,2013-04-09 09:25:00,
2013-04-09 02:30:00,46.6,42.7,30.10,North,0,0.0,0.0,86,0.00,,,0.00,WUHU216HW,2013-04-09 09:30:00,
2013-04-09 02:35:00,46.4,42.2,30.10,North,0,0.0,0.0,85,0.00,,,0.00,WUHU216HW,2013-04-09 09:35:00,
2013-04-09 02:40:00,46.4,42.2,30.10,North,0,0.0,0.0,85,0.00,,,0.00,WUHU216HW,2013-04-09 09:40:00,
2013-04-09 02:45:00,46.4,42.2,30.09,North,0,0.0,0.0,85,0.00,,,0.00,WUHU216HW,2013-04-09 09:45:00,
2013-04-09 02:50:00,46.6,42.4,30.09,North,0,0.0,0.0,85,0.00,,,0.00,WUHU216HW,2013-04-09 09:50:00,
2013-04-09 02:55:00,46.6,42.4,30.09,North,0,0.0,0.0,85,0.00,,,0.00,WUHU216HW,2013-04-09 09:55:00,
2013-04-09 03:00:00,46.6,42.0,30.09,North,0,0.0,0.0,84,0.00,,,0.00,WUHU216HW,2013-04-09 10:00:00,
2013-04-09 03:05:00,46.4,42.0,30.09,North,0,0.0,0.0,84,0.00,,,0.00,WUHU216HW,2013-04-09 10:05:00,
2013-04-09 03:10:00,46.3,41.4,30.09,North,0,0.0,0.0,83,0.00,,,0.00,WUHU216HW,2013-04-09 10:10:00,
2013-04-09 03:15:00,45.9,41.0,30.09,North,0,0.0,0.0,83,0.00,,,0.00,WUHU216HW,2013-04-09 10:15:00,
2013-04-09 03:20:00,45.7,40.6,30.08,North,0,0.0,0.0,82,0.00,,,0.00,WUHU216HW,2013-04-09 10:20:00,
2013-04-09 03:25:00,45.4,40.5,30.09,North,0,0.0,0.0,83,0.00,,,0.00,WUHU216HW,2013-04-09 10:25:00,
2013-04-09 03:30:00,45.2,40.3,30.09,North,0,0.0,0.0,83,0.00,,,0.00,WUHU216HW,2013-04-09 10:30:00,
2013-04-09 03:35:00,45.0,40.1,30.09,North,0,0.0,0.0,83,0.00,,,0.00,WUHU216HW,2013-04-09 10:35:00,
2013-04-09 03:40:00,45.2,40.3,30.09,North,0,0.0,0.0,83,0.00,,,0.00,WUHU216HW,2013-04-09 10:40:00,
2013-04-09 03:45:00,45.0,40.1,30.09,North,0,0.0,0.0,83,0.00,,,0.00,WUHU216HW,2013-04-09 10:45:00,
2013-04-09 03:50:00,45.0,40.1,30.09,North,0,0.0,0.0,83,0.00,,,0.00,WUHU216HW,2013-04-09 10:50:00,
2013-04-09 03:55:00,45.0,39.9,30.09,North,0,0.0,0.0,82,0.00,,,0.00,WUHU216HW,2013-04-09 10:55:00,
2013-04-09 04:00:00,45.0,39.9,30.09,North,0,0.0,0.0,82,0.00,,,0.00,WUHU216HW,2013-04-09 11:00:00,
2013-04-09 04:05:00,45.0,39.9,30.09,North,0,0.0,0.0,82,0.00,,,0.00,WUHU216HW,2013-04-09 11:05:00,
2013-04-09 04:10:00,45.0,39.5,30.09,North,0,0.0,0.0,81,0.00,,,0.00,WUHU216HW,2013-04-09 11:10:00,
2013-04-09 04:15:00,45.0,39.5,30.09,North,0,0.0,0.0,81,0.00,,,0.00,WUHU216HW,2013-04-09 11:15:00,
2013-04-09 04:20:00,45.4,39.6,30.09,North,0,0.0,0.0,80,0.00,,,0.00,WUHU216HW,2013-04-09 11:20:00,
2013-04-09 04:25:00,45.5,39.4,30.10,North,0,0.0,0.0,79,0.00,,,0.00,WUHU216HW,2013-04-09 11:25:00,
2013-04-09 04:30:00,46.4,40.0,30.10,North,0,0.0,0.0,78,0.00,,,0.00,WUHU216HW,2013-04-09 11:30:00,
2013-04-09 04:35:00,46.8,40.0,30.10,North,0,0.0,0.0,77,0.00,,,0.00,WUHU216HW,2013-04-09 11:35:00,
2013-04-09 04:40:00,46.8,39.6,30.09,North,0,0.0,0.0,76,0.00,,,0.00,WUHU216HW,2013-04-09 11:40:00,
2013-04-09 04:45:00,46.8,39.6,30.10,North,0,0.0,0.0,76,0.00,,,0.00,WUHU216HW,2013-04-09 11:45:00,
2013-04-09 04:50:00,46.8,39.6,30.09,North,0,0.0,0.0,76,0.00,,,0.00,WUHU216HW,2013-04-09 11:50:00,
2013-04-09 04:55:00,46.8,39.6,30.09,North,0,0.0,0.0,76,0.00,,,0.00,WUHU216HW,2013-04-09 11:55:00,
2013-04-09 05:00:00,46.8,39.3,30.09,North,0,0.0,0.0,75,0.00,,,0.00,WUHU216HW,2013-04-09 12:00:00,
2013-04-09 05:05:00,47.0,39.4,30.09,North,0,0.0,0.0,75,0.00,,,0.00,WUHU216HW,2013-04-09 12:05:00,
2013-04-09 05:10:00,47.2,39.2,30.10,North,0,0.0,0.0,74,0.00,,,0.00,WUHU216HW,2013-04-09 12:10:00,
2013-04-09 05:15:00,47.7,39.8,30.10,North,0,0.0,0.0,74,0.00,,,0.00,WUHU216HW,2013-04-09 12:15:00,
2013-04-09 05:20:00,47.5,39.2,30.10,North,0,0.0,0.0,73,0.00,,,0.00,WUHU216HW,2013-04-09 12:20:00,
2013-04-09 05:25:00,47.3,39.1,30.10,North,0,0.0,0.0,73,0.00,,,0.00,WUHU216HW,2013-04-09 12:25:00,
2013-04-09 05:30:00,47.3,39.1,30.10,North,0,0.0,0.0,73,0.00,,,0.00,WUHU216HW,2013-04-09 12:30:00,
2013-04-09 05:35:00,47.2,39.0,30.10,North,0,0.0,0.0,73,0.00,,,0.00,WUHU216HW,2013-04-09 12:35:00,
2013-04-09 05:40:00,47.2,38.6,30.10,North,0,0.0,0.0,72,0.00,,,0.00,WUHU216HW,2013-04-09 12:40:00,
2013-04-09 05:45:00,47.0,38.4,30.10,North,0,0.0,0.0,72,0.00,,,0.00,WUHU216HW,2013-04-09 12:45:00,
2013-04-09 05:51:00,47.0,38.8,30.10,North,0,0.0,0.0,73,0.00,,,0.00,WUHU216HW,2013-04-09 12:51:00,
2013-04-09 05:56:00,46.8,38.3,30.10,North,0,0.0,0.0,72,0.00,,,0.00,WUHU216HW,2013-04-09 12:56:00,
2013-04-09 06:01:00,46.6,38.4,30.10,North,0,0.0,0.0,73,0.00,,,0.00,WUHU216HW,2013-04-09 13:01:00,
2013-04-09 06:06:00,46.4,38.3,30.10,North,0,0.0,0.0,73,0.00,,,0.00,WUHU216HW,2013-04-09 13:06:00,
2013-04-09 06:11:00,46.3,38.1,30.11,North,0,0.0,0.0,73,0.00,,,0.00,WUHU216HW,2013-04-09 13:11:00,
2013-04-09 06:16:00,46.4,38.3,30.11,North,0,0.0,0.0,73,0.00,,,0.00,WUHU216HW,2013-04-09 13:16:00,
2013-04-09 06:21:00,46.4,38.3,30.11,North,0,0.0,0.0,73,0.00,,,0.00,WUHU216HW,2013-04-09 13:21:00,
2013-04-09 06:26:00,46.4,38.3,30.11,North,0,0.0,0.0,73,0.00,,,0.00,WUHU216HW,2013-04-09 13:26:00,
2013-04-09 06:31:00,46.6,38.4,30.12,North,0,0.0,0.0,73,0.00,,,0.00,WUHU216HW,2013-04-09 13:31:00,
2013-04-09 06:36:00,46.8,38.6,30.12,North,0,0.0,0.0,73,0.00,,,0.00,WUHU216HW,2013-04-09 13:36:00,
2013-04-09 06:41:00,46.8,38.3,30.12,North,0,0.0,0.0,72,0.00,,,0.00,WUHU216HW,2013-04-09 13:41:00,
2013-04-09 06:47:00,46.8,38.3,30.12,North,0,0.0,0.0,72,0.00,,,0.00,WUHU216HW,2013-04-09 13:47:00,
2013-04-09 06:52:00,46.6,38.1,30.12,North,0,0.0,0.0,72,0.00,,,0.00,WUHU216HW,2013-04-09 13:52:00,
2013-04-09 06:57:00,46.8,38.3,30.12,North,0,0.0,0.0,72,0.00,,,0.00,WUHU216HW,2013-04-09 13:57:00,
2013-04-09 07:02:00,47.0,38.4,30.13,North,0,0.0,0.0,72,0.00,,,0.00,WUHU216HW,2013-04-09 14:02:00,
2013-04-09 07:07:00,47.0,38.4,30.13,North,0,0.0,0.0,72,0.00,,,0.00,WUHU216HW,2013-04-09 14:07:00,
2013-04-09 07:12:00,47.2,38.6,30.13,North,0,0.0,0.0,72,0.00,,,0.00,WUHU216HW,2013-04-09 14:12:00,
2013-04-09 07:17:00,47.2,38.6,30.13,North,0,0.0,0.0,72,0.00,,,0.00,WUHU216HW,2013-04-09 14:17:00,
2013-04-09 07:22:00,47.3,38.8,30.13,North,0,0.0,0.0,72,0.00,,,0.00,WUHU216HW,2013-04-09 14:22:00,
2013-04-09 07:27:00,47.7,39.1,30.13,North,0,0.0,0.0,72,0.00,,,0.00,WUHU216HW,2013-04-09 14:27:00,
2013-04-09 07:32:00,47.9,38.9,30.13,North,0,0.0,0.0,71,0.00,,,0.00,WUHU216HW,2013-04-09 14:32:00,
2013-04-09 07:37:00,48.4,39.4,30.13,North,0,0.0,0.0,71,0.00,,,0.00,WUHU216HW,2013-04-09 14:37:00,
2013-04-09 07:42:00,48.6,39.6,30.13,North,0,0.0,0.0,71,0.00,,,0.00,WUHU216HW,2013-04-09 14:42:00,
2013-04-09 07:47:00,49.0,40.0,30.13,North,0,0.0,0.0,71,0.00,,,0.00,WUHU216HW,2013-04-09 14:47:00,
2013-04-09 07:52:00,49.5,40.1,30.14,North,0,0.0,0.0,70,0.00,,,0.00,WUHU216HW,2013-04-09 14:52:00,
2013-04-09 07:57:00,50.0,41.1,30.14,North,0,0.0,0.0,71,0.00,,,0.00,WUHU216HW,2013-04-09 14:57:00,
2013-04-09 08:02:00,52.4,43.3,30.14,North,0,0.0,0.0,71,0.00,,,0.00,WUHU216HW,2013-04-09 15:02:00,
2013-04-09 08:07:00,55.1,45.1,30.14,North,0,0.0,0.0,69,0.00,,,0.00,WUHU216HW,2013-04-09 15:07:00,
2013-04-09 08:12:00,57.6,46.3,30.14,North,0,0.0,0.0,66,0.00,,,0.00,WUHU216HW,2013-04-09 15:12:00,
2013-04-09 08:17:00,59.4,47.2,30.14,North,0,0.0,0.0,64,0.00,,,0.00,WUHU216HW,2013-04-09 15:17:00,
2013-04-09 08:22:00,61.6,48.9,30.14,North,0,0.0,0.0,63,0.00,,,0.00,WUHU216HW,2013-04-09 15:22:00,
2013-04-09 08:27:00,63.4,48.8,30.14,North,0,0.0,0.0,59,0.00,,,0.00,WUHU216HW,2013-04-09 15:27:00,
2013-04-09 08:33:00,64.6,50.0,30.13,North,0,0.0,0.0,59,0.00,,,0.00,WUHU216HW,2013-04-09 15:33:00,
2013-04-09 08:38:00,66.2,50.6,30.13,North,0,0.0,0.0,57,0.00,,,0.00,WUHU216HW,2013-04-09 15:38:00,
2013-04-09 08:43:00,67.7,51.8,30.14,North,0,0.0,0.0,57,0.00,,,0.00,WUHU216HW,2013-04-09 15:43:00,
2013-04-09 08:48:00,69.3,51.9,30.14,North,0,0.0,0.0,54,0.00,,,0.00,WUHU216HW,2013-04-09 15:48:00,
2013-04-09 08:53:00,70.4,53.4,30.14,North,0,0.0,0.0,55,0.00,,,0.00,WUHU216HW,2013-04-09 15:53:00,
2013-04-09 08:58:00,71.5,52.4,30.14,North,0,0.0,0.0,51,0.00,,,0.00,WUHU216HW,2013-04-09 15:58:00,
2013-04-09 09:03:00,71.8,52.7,30.14,North,0,0.0,0.0,51,0.00,,,0.00,WUHU216HW,2013-04-09 16:03:00,
2013-04-09 09:08:00,72.0,50.0,30.14,North,0,0.0,0.0,46,0.00,,,0.00,WUHU216HW,2013-04-09 16:08:00,
2013-04-09 09:13:00,72.4,50.3,30.14,North,0,0.0,0.0,46,0.00,,,0.00,WUHU216HW,2013-04-09 16:13:00,
2013-04-09 09:18:00,73.1,50.9,30.14,North,0,0.0,0.0,46,0.00,,,0.00,WUHU216HW,2013-04-09 16:18:00,
2013-04-09 09:23:00,73.1,48.6,30.14,North,0,0.0,0.0,42,0.00,,,0.00,WUHU216HW,2013-04-09 16:23:00,
2013-04-09 09:28:00,72.9,47.8,30.14,North,0,0.0,0.0,41,0.00,,,0.00,WUHU216HW,2013-04-09 16:28:00,
2013-04-09 09:33:00,72.5,46.2,30.14,North,0,0.0,0.0,39,0.00,,,0.00,WUHU216HW,2013-04-09 16:33:00,
2013-04-09 09:38:00,72.7,45.5,30.13,North,0,0.0,0.0,38,0.00,,,0.00,WUHU216HW,2013-04-09 16:38:00,
2013-04-09 09:43:00,72.5,45.4,30.13,North,0,0.0,0.0,38,0.00,,,0.00,WUHU216HW,2013-04-09 16:43:00,
2013-04-09 09:48:00,71.5,44.5,30.14,North,0,0.0,0.0,38,0.00,,,0.00,WUHU216HW,2013-04-09 16:48:00,
2013-04-09 09:53:00,70.6,42.9,30.13,North,0,0.0,0.0,37,0.00,,,0.00,WUHU216HW,2013-04-09 16:53:00,
2013-04-09 09:58:00,70.4,43.5,30.13,North,0,0.0,0.0,38,0.00,,,0.00,WUHU216HW,2013-04-09 16:58:00,
2013-04-09 10:03:00,71.3,44.3,30.13,North,0,0.0,0.0,38,0.00,,,0.00,WUHU216HW,2013-04-09 17:03:00,
2013-04-09 10:08:00,71.8,42.6,30.13,North,0,0.0,0.0,35,0.00,,,0.00,WUHU216HW,2013-04-09 17:08:00,
2013-04-09 10:13:00,72.4,43.0,30.13,North,0,0.0,0.0,35,0.00,,,0.00,WUHU216HW,2013-04-09 17:13:00,
2013-04-09 10:18:00,73.1,42.8,30.13,North,0,0.0,0.0,34,0.00,,,0.00,WUHU216HW,2013-04-09 17:18:00,
2013-04-09 10:23:00,73.8,43.5,30.13,North,0,0.0,0.0,34,0.00,,,0.00,WUHU216HW,2013-04-09 17:23:00,
2013-04-09 10:28:00,73.8,41.9,30.13,North,0,0.0,0.0,32,0.00,,,0.00,WUHU216HW,2013-04-09 17:28:00,
2013-04-09 10:33:00,73.1,40.6,30.13,North,0,0.0,0.0,31,0.00,,,0.00,WUHU216HW,2013-04-09 17:33:00,
2013-04-09 10:38:00,72.7,41.0,30.13,North,0,0.0,0.0,32,0.00,,,0.00,WUHU216HW,2013-04-09 17:38:00,
2013-04-09 10:43:00,72.5,41.0,30.12,North,0,0.0,0.0,32,0.00,,,0.00,WUHU216HW,2013-04-09 17:43:00,
2013-04-09 10:48:00,72.5,40.1,30.12,North,0,0.0,0.0,31,0.00,,,0.00,WUHU216HW,2013-04-09 17:48:00,
2013-04-09 10:53:00,72.5,40.1,30.12,North,0,0.0,0.0,31,0.00,,,0.00,WUHU216HW,2013-04-09 17:53:00,
2013-04-09 10:58:00,72.7,40.3,30.12,North,0,0.0,0.0,31,0.00,,,0.00,WUHU216HW,2013-04-09 17:58:00,
2013-04-09 11:03:00,72.9,39.7,30.12,North,0,0.0,0.0,30,0.00,,,0.00,WUHU216HW,2013-04-09 18:03:00,
2013-04-09 11:08:00,73.1,40.6,30.12,North,0,0.0,0.0,31,0.00,,,0.00,WUHU216HW,2013-04-09 18:08:00,
2013-04-09 11:13:00,73.3,40.8,30.13,North,0,0.0,0.0,31,0.00,,,0.00,WUHU216HW,2013-04-09 18:13:00,
2013-04-09 11:18:00,73.8,41.2,30.13,North,0,0.0,0.0,31,0.00,,,0.00,WUHU216HW,2013-04-09 18:18:00,
2013-04-09 11:23:00,74.3,41.0,30.13,North,0,0.0,0.0,30,0.00,,,0.00,WUHU216HW,2013-04-09 18:23:00,
2013-04-09 11:28:00,74.5,40.1,30.13,North,0,0.0,0.0,29,0.00,,,0.00,WUHU216HW,2013-04-09 18:28:00,
2013-04-09 11:33:00,74.5,41.1,30.13,North,0,0.0,0.0,30,0.00,,,0.00,WUHU216HW,2013-04-09 18:33:00,
2013-04-09 11:38:00,74.9,41.4,30.13,North,0,0.0,0.0,30,0.00,,,0.00,WUHU216HW,2013-04-09 18:38:00,
2013-04-09 11:43:00,74.7,41.3,30.12,North,0,0.0,0.0,30,0.00,,,0.00,WUHU216HW,2013-04-09 18:43:00,
2013-04-09 11:48:00,74.7,40.2,30.12,North,0,0.0,0.0,29,0.00,,,0.00,WUHU216HW,2013-04-09 18:48:00,
2013-04-09 11:53:00,74.7,41.3,30.12,North,0,0.0,0.0,30,0.00,,,0.00,WUHU216HW,2013-04-09 18:53:00,
2013-04-09 11:58:00,75.1,41.6,30.12,North,0,0.0,0.0,30,0.00,,,0.00,WUHU216HW,2013-04-09 18:58:00,
2013-04-09 12:04:00,74.7,41.3,30.12,North,0,0.0,0.0,30,0.00,,,0.00,WUHU216HW,2013-04-09 19:04:00,
2013-04-09 12:09:00,74.7,40.2,30.12,North,0,0.0,0.0,29,0.00,,,0.00,WUHU216HW,2013-04-09 19:09:00,
2013-04-09 12:14:00,74.3,40.0,30.12,North,0,0.0,0.0,29,0.00,,,0.00,WUHU216HW,2013-04-09 19:14:00,
2013-04-09 12:19:00,74.5,40.1,30.12,North,0,0.0,0.0,29,0.00,,,0.00,WUHU216HW,2013-04-09 19:19:00,
2013-04-09 12:24:00,74.5,39.1,30.12,North,0,0.0,0.0,28,0.00,,,0.00,WUHU216HW,2013-04-09 19:24:00,
2013-04-09 12:29:00,74.5,40.1,30.11,North,0,0.0,0.0,29,0.00,,,0.00,WUHU216HW,2013-04-09 19:29:00,
2013-04-09 12:34:00,74.5,40.1,30.11,North,0,0.0,0.0,29,0.00,,,0.00,WUHU216HW,2013-04-09 19:34:00,
2013-04-09 12:39:00,74.9,41.4,30.11,North,0,0.0,0.0,30,0.00,,,0.00,WUHU216HW,2013-04-09 19:39:00,
2013-04-09 12:44:00,75.1,39.5,30.11,North,0,0.0,0.0,28,0.00,,,0.00,WUHU216HW,2013-04-09 19:44:00,
2013-04-09 12:49:00,74.7,40.2,30.11,North,0,0.0,0.0,29,0.00,,,0.00,WUHU216HW,2013-04-09 19:49:00,
2013-04-09 12:54:00,74.7,40.2,30.11,North,0,0.0,0.0,29,0.00,,,0.00,WUHU216HW,2013-04-09 19:54:00,
2013-04-09 12:59:00,74.7,40.2,30.11,North,0,0.0,0.0,29,0.00,,,0.00,WUHU216HW,2013-04-09 19:59:00,
2013-04-09 13:04:00,75.1,40.6,30.11,North,0,0.0,0.0,29,0.00,,,0.00,WUHU216HW,2013-04-09 20:04:00,
2013-04-09 13:09:00,75.2,40.8,30.11,North,0,0.0,0.0,29,0.00,,,0.00,WUHU216HW,2013-04-09 20:09:00,
2013-04-09 13:14:00,75.4,39.9,30.11,North,0,0.0,0.0,28,0.00,,,0.00,WUHU216HW,2013-04-09 20:14:00,
2013-04-09 13:19:00,75.4,42.0,30.11,North,0,0.0,0.0,30,0.00,,,0.00,WUHU216HW,2013-04-09 20:19:00,
2013-04-09 13:24:00,75.6,41.0,30.11,North,0,0.0,0.0,29,0.00,,,0.00,WUHU216HW,2013-04-09 20:24:00,
2013-04-09 13:29:00,75.6,41.0,30.11,North,0,0.0,0.0,29,0.00,,,0.00,WUHU216HW,2013-04-09 20:29:00,
2013-04-09 13:34:00,76.0,41.4,30.10,North,0,0.0,0.0,29,0.00,,,0.00,WUHU216HW,2013-04-09 20:34:00,
2013-04-09 13:40:00,75.8,42.2,30.10,North,0,0.0,0.0,30,0.00,,,0.00,WUHU216HW,2013-04-09 20:40:00,
2013-04-09 13:45:00,75.8,41.2,30.10,North,0,0.0,0.0,29,0.00,,,0.00,WUHU216HW,2013-04-09 20:45:00,
2013-04-09 13:50:00,75.8,39.2,30.10,North,0,0.0,0.0,27,0.00,,,0.00,WUHU216HW,2013-04-09 20:50:00,
2013-04-09 13:55:00,76.0,40.3,30.10,North,0,0.0,0.0,28,0.00,,,0.00,WUHU216HW,2013-04-09 20:55:00,
2013-04-09 14:00:00,76.3,38.6,30.10,North,0,0.0,0.0,26,0.00,,,0.00,WUHU216HW,2013-04-09 21:00:00,
2013-04-09 14:05:00,76.3,37.5,30.10,North,0,0.0,0.0,25,0.00,,,0.00,WUHU216HW,2013-04-09 21:05:00,
2013-04-09 14:10:00,76.3,39.6,30.10,North,0,0.0,0.0,27,0.00,,,0.00,WUHU216HW,2013-04-09 21:10:00,
2013-04-09 14:15:00,76.7,38.9,30.10,North,0,0.0,0.0,26,0.00,,,0.00,WUHU216HW,2013-04-09 21:15:00,
2013-04-09 14:20:00,76.7,38.9,30.09,North,0,0.0,0.0,26,0.00,,,0.00,WUHU216HW,2013-04-09 21:20:00,
2013-04-09 14:25:00,76.9,38.0,30.09,North,0,0.0,0.0,25,0.00,,,0.00,WUHU216HW,2013-04-09 21:25:00,
2013-04-09 14:30:00,76.9,39.1,30.08,North,0,0.0,0.0,26,0.00,,,0.00,WUHU216HW,2013-04-09 21:30:00,
2013-04-09 14:35:00,76.9,39.1,30.09,North,0,0.0,0.0,26,0.00,,,0.00,WUHU216HW,2013-04-09 21:35:00,
2013-04-09 14:40:00,76.9,38.0,30.10,North,0,0.0,0.0,25,0.00,,,0.00,WUHU216HW,2013-04-09 21:40:00,
2013-04-09 14:45:00,76.9,39.1,30.10,North,0,0.0,0.0,26,0.00,,,0.00,WUHU216HW,2013-04-09 21:45:00,
2013-04-09 14:50:00,77.0,39.3,30.10,North,0,0.0,0.0,26,0.00,,,0.00,WUHU216HW,2013-04-09 21:50:00,
2013-04-09 14:55:00,77.0,38.2,30.09,North,0,0.0,0.0,25,0.00,,,0.00,WUHU216HW,2013-04-09 21:55:00,
2013-04-09 15:00:00,77.0,39.3,30.10,North,0,0.0,0.0,26,0.00,,,0.00,WUHU216HW,2013-04-09 22:00:00,
2013-04-09 15:05:00,76.9,38.0,30.10,North,0,0.0,0.0,25,0.00,,,0.00,WUHU216HW,2013-04-09 22:05:00,
2013-04-09 15:10:00,76.9,38.0,30.09,North,0,0.0,0.0,25,0.00,,,0.00,WUHU216HW,2013-04-09 22:10:00,
2013-04-09 15:15:00,77.0,37.1,30.10,North,0,0.0,0.0,24,0.00,,,0.00,WUHU216HW,2013-04-09 22:15:00,
2013-04-09 15:20:00,77.4,37.5,30.09,North,0,0.0,0.0,24,0.00,,,0.00,WUHU216HW,2013-04-09 22:20:00,
2013-04-09 15:25:00,77.4,37.5,30.09,North,0,0.0,0.0,24,0.00,,,0.00,WUHU216HW,2013-04-09 22:25:00,
2013-04-09 15:30:00,77.6,36.6,30.10,North,0,0.0,0.0,23,0.00,,,0.00,WUHU216HW,2013-04-09 22:30:00,
2013-04-09 15:35:00,77.6,36.6,30.09,North,0,0.0,0.0,23,0.00,,,0.00,WUHU216HW,2013-04-09 22:35:00,
2013-04-09 15:40:00,77.4,36.4,30.09,North,0,0.0,0.0,23,0.00,,,0.00,WUHU216HW,2013-04-09 22:40:00,
2013-04-09 15:45:00,77.4,37.5,30.09,North,0,0.0,0.0,24,0.00,,,0.00,WUHU216HW,2013-04-09 22:45:00,
2013-04-09 15:50:00,77.6,37.5,30.08,North,0,0.0,0.0,24,0.00,,,0.00,WUHU216HW,2013-04-09 22:50:00,
2013-04-09 15:55:00,77.4,36.4,30.09,North,0,0.0,0.0,23,0.00,,,0.00,WUHU216HW,2013-04-09 22:55:00,
2013-04-09 16:00:00,77.2,36.2,30.09,North,0,0.0,0.0,23,0.00,,,0.00,WUHU216HW,2013-04-09 23:00:00,
2013-04-09 16:05:00,77.2,37.3,30.09,North,0,0.0,0.0,24,0.00,,,0.00,WUHU216HW,2013-04-09 23:05:00,
2013-04-09 16:10:00,77.4,37.5,30.09,North,0,0.0,0.0,24,0.00,,,0.00,WUHU216HW,2013-04-09 23:10:00,
2013-04-09 16:15:00,77.4,37.5,30.09,North,0,0.0,0.0,24,0.00,,,0.00,WUHU216HW,2013-04-09 23:15:00,
2013-04-09 16:20:00,77.4,38.4,30.09,North,0,0.0,0.0,25,0.00,,,0.00,WUHU216HW,2013-04-09 23:20:00,
2013-04-09 16:25:00,77.4,37.5,30.09,North,0,0.0,0.0,24,0.00,,,0.00,WUHU216HW,2013-04-09 23:25:00,
2013-04-09 16:30:00,77.6,37.5,30.09,North,0,0.0,0.0,24,0.00,,,0.00,WUHU216HW,2013-04-09 23:30:00,
2013-04-09 16:35:00,77.2,37.3,30.09,North,0,0.0,0.0,24,0.00,,,0.00,WUHU216HW,2013-04-09 23:35:00,
2013-04-09 16:40:00,76.9,38.0,30.09,North,0,0.0,0.0,25,0.00,,,0.00,WUHU216HW,2013-04-09 23:40:00,
2013-04-09 16:45:00,76.5,37.7,30.09,North,0,0.0,0.0,25,0.00,,,0.00,WUHU216HW,2013-04-09 23:45:00,
2013-04-09 16:50:00,76.3,37.5,30.09,North,0,0.0,0.0,25,0.00,,,0.00,WUHU216HW,2013-04-09 23:50:00,
2013-04-09 16:55:00,76.0,37.3,30.09,North,0,0.0,0.0,25,0.00,,,0.00,WUHU216HW,2013-04-09 23:55:00,
2013-04-09 17:00:00,75.6,38.0,30.09,North,0,0.0,0.0,26,0.00,,,0.00,WUHU216HW,2013-04-10 00:00:00,
2013-04-09 17:06:00,75.6,38.0,30.09,North,0,0.0,0.0,26,0.00,,,0.00,WUHU216HW,2013-04-10 00:06:00,
2013-04-09 17:11:00,75.6,38.0,30.09,North,0,0.0,0.0,26,0.00,,,0.00,WUHU216HW,2013-04-10 00:11:00,
2013-04-09 17:16:00,76.0,38.3,30.09,North,0,0.0,0.0,26,0.00,,,0.00,WUHU216HW,2013-04-10 00:16:00,
2013-04-09 17:21:00,75.6,38.0,30.09,North,0,0.0,0.0,26,0.00,,,0.00,WUHU216HW,2013-04-10 00:21:00,
2013-04-09 17:26:00,75.6,38.0,30.09,North,0,0.0,0.0,26,0.00,,,0.00,WUHU216HW,2013-04-10 00:26:00,
2013-04-09 17:31:00,75.2,37.6,30.09,North,0,0.0,0.0,26,0.00,,,0.00,WUHU216HW,2013-04-10 00:31:00,
2013-04-09 17:36:00,75.1,37.5,30.09,North,0,0.0,0.0,26,0.00,,,0.00,WUHU216HW,2013-04-10 00:36:00,
2013-04-09 17:41:00,74.9,36.4,30.09,North,0,0.0,0.0,25,0.00,,,0.00,WUHU216HW,2013-04-10 00:41:00,
2013-04-09 17:46:00,74.5,37.1,30.09,North,0,0.0,0.0,26,0.00,,,0.00,WUHU216HW,2013-04-10 00:46:00,
2013-04-09 17:51:00,74.2,35.7,30.08,North,0,0.0,0.0,25,0.00,,,0.00,WUHU216HW,2013-04-10 00:51:00,
2013-04-09 17:56:00,73.8,36.5,30.09,North,0,0.0,0.0,26,0.00,,,0.00,WUHU216HW,2013-04-10 00:56:00,
2013-04-09 18:01:00,73.6,35.3,30.09,North,0,0.0,0.0,25,0.00,,,0.00,WUHU216HW,2013-04-10 01:01:00,
2013-04-09 18:06:00,73.4,36.1,30.09,North,0,0.0,0.0,26,0.00,,,0.00,WUHU216HW,2013-04-10 01:06:00,
2013-04-09 18:11:00,73.3,36.0,30.09,North,0,0.0,0.0,26,0.00,,,0.00,WUHU216HW,2013-04-10 01:11:00,
2013-04-09 18:16:00,73.1,35.8,30.09,North,0,0.0,0.0,26,0.00,,,0.00,WUHU216HW,2013-04-10 01:16:00,
2013-04-09 18:21:00,72.9,34.7,30.10,North,0,0.0,0.0,25,0.00,,,0.00,WUHU216HW,2013-04-10 01:21:00,
2013-04-09 18:26:00,72.7,34.5,30.10,North,0,0.0,0.0,25,0.00,,,0.00,WUHU216HW,2013-04-10 01:26:00,
2013-04-09 18:31:00,72.4,35.2,30.10,North,0,0.0,0.0,26,0.00,,,0.00,WUHU216HW,2013-04-10 01:31:00,
2013-04-09 18:36:00,72.2,36.1,30.10,North,0,0.0,0.0,27,0.00,,,0.00,WUHU216HW,2013-04-10 01:36:00,
2013-04-09 18:41:00,71.6,37.7,30.10,North,0,0.0,0.0,29,0.00,,,0.00,WUHU216HW,2013-04-10 01:41:00,
2013-04-09 18:46:00,70.9,39.5,30.10,North,0,0.0,0.0,32,0.00,,,0.00,WUHU216HW,2013-04-10 01:46:00,
2013-04-09 18:51:00,69.8,40.8,30.10,North,0,0.0,0.0,35,0.00,,,0.00,WUHU216HW,2013-04-10 01:51:00,
2013-04-09 18:56:00,68.2,42.3,30.10,North,0,0.0,0.0,39,0.00,,,0.00,WUHU216HW,2013-04-10 01:56:00,
2013-04-09 19:02:00,66.8,44.1,30.10,North,0,0.0,0.0,44,0.00,,,0.00,WUHU216HW,2013-04-10 02:02:00,
2013-04-09 19:07:00,65.5,42.3,30.10,North,0,0.0,0.0,43,0.00,,,0.00,WUHU216HW,2013-04-10 02:07:00,
2013-04-09 19:12:00,64.8,44.0,30.11,North,0,0.0,0.0,47,0.00,,,0.00,WUHU216HW,2013-04-10 02:12:00,
2013-04-09 19:17:00,63.9,46.4,30.11,North,0,0.0,0.0,53,0.00,,,0.00,WUHU216HW,2013-04-10 02:17:00,
2013-04-09 19:22:00,62.8,44.4,30.11,North,0,0.0,0.0,51,0.00,,,0.00,WUHU216HW,2013-04-10 02:22:00,
2013-04-09 19:27:00,62.1,45.2,30.11,North,0,0.0,0.0,54,0.00,,,0.00,WUHU216HW,2013-04-10 02:27:00,
2013-04-09 19:32:00,61.2,45.8,30.10,North,0,0.0,0.0,57,0.00,,,0.00,WUHU216HW,2013-04-10 02:32:00,
2013-04-09 19:37:00,60.5,46.6,30.11,North,0,0.0,0.0,60,0.00,,,0.00,WUHU216HW,2013-04-10 02:37:00,
2013-04-09 19:42:00,59.9,46.1,30.11,North,0,0.0,0.0,60,0.00,,,0.00,WUHU216HW,2013-04-10 02:42:00,
2013-04-09 19:47:00,59.4,46.0,30.11,North,0,0.0,0.0,61,0.00,,,0.00,WUHU216HW,2013-04-10 02:47:00,
2013-04-09 19:52:00,59.0,46.0,30.12,North,0,0.0,0.0,62,0.00,,,0.00,WUHU216HW,2013-04-10 02:52:00,
2013-04-09 19:57:00,58.7,46.9,30.12,North,0,0.0,0.0,65,0.00,,,0.00,WUHU216HW,2013-04-10 02:57:00,
2013-04-09 20:02:00,58.1,46.8,30.12,North,0,0.0,0.0,66,0.00,,,0.00,WUHU216HW,2013-04-10 03:02:00,
2013-04-09 20:07:00,58.0,46.3,30.13,North,0,0.0,0.0,65,0.00,,,0.00,WUHU216HW,2013-04-10 03:07:00,
2013-04-09 20:12:00,57.6,47.5,30.13,North,0,0.0,0.0,69,0.00,,,0.00,WUHU216HW,2013-04-10 03:12:00,
2013-04-09 20:17:00,57.2,47.5,30.13,North,0,0.0,0.0,70,0.00,,,0.00,WUHU216HW,2013-04-10 03:17:00,
2013-04-09 20:22:00,56.7,47.7,30.13,North,0,0.0,0.0,72,0.00,,,0.00,WUHU216HW,2013-04-10 03:22:00,
2013-04-09 20:27:00,56.3,47.8,30.14,North,0,0.0,0.0,73,0.00,,,0.00,WUHU216HW,2013-04-10 03:27:00,
2013-04-09 20:32:00,56.2,47.6,30.14,North,0,0.0,0.0,73,0.00,,,0.00,WUHU216HW,2013-04-10 03:32:00,
2013-04-09 20:37:00,55.8,47.3,30.14,North,0,0.0,0.0,73,0.00,,,0.00,WUHU216HW,2013-04-10 03:37:00,
2013-04-09 20:42:00,55.4,47.6,30.14,North,0,0.0,0.0,75,0.00,,,0.00,WUHU216HW,2013-04-10 03:42:00,
2013-04-09 20:47:00,55.3,47.8,30.14,North,0,0.0,0.0,76,0.00,,,0.00,WUHU216HW,2013-04-10 03:47:00,
2013-04-09 20:52:00,55.1,47.6,30.14,North,0,0.0,0.0,76,0.00,,,0.00,WUHU216HW,2013-04-10 03:52:00,
2013-04-09 20:57:00,55.1,47.6,30.14,North,0,0.0,0.0,76,0.00,,,0.00,WUHU216HW,2013-04-10 03:57:00,
2013-04-09 21:02:00,54.7,47.3,30.14,North,0,0.0,0.0,76,0.00,,,0.00,WUHU216HW,2013-04-10 04:02:00,
2013-04-09 21:07:00,54.7,47.3,30.14,North,0,0.0,0.0,76,0.00,,,0.00,WUHU216HW,2013-04-10 04:07:00,
2013-04-09 21:12:00,54.5,47.1,30.14,North,0,0.0,0.0,76,0.00,,,0.00,WUHU216HW,2013-04-10 04:12:00,
2013-04-09 21:17:00,54.4,47.0,30.15,North,0,0.0,0.0,76,0.00,,,0.00,WUHU216HW,2013-04-10 04:17:00,
2013-04-09 21:22:00,54.4,47.0,30.15,North,0,0.0,0.0,76,0.00,,,0.00,WUHU216HW,2013-04-10 04:22:00,
2013-04-09 21:27:00,54.4,46.6,30.15,North,0,0.0,0.0,75,0.00,,,0.00,WUHU216HW,2013-04-10 04:27:00,
2013-04-09 21:32:00,54.4,46.6,30.16,North,0,0.0,0.0,75,0.00,,,0.00,WUHU216HW,2013-04-10 04:32:00,
2013-04-09 21:37:00,54.4,46.6,30.16,North,0,0.0,0.0,75,0.00,,,0.00,WUHU216HW,2013-04-10 04:37:00,
2013-04-09 21:42:00,54.4,46.6,30.16,North,0,0.0,0.0,75,0.00,,,0.00,WUHU216HW,2013-04-10 04:42:00,
2013-04-09 21:47:00,54.2,46.5,30.16,North,0,0.0,0.0,75,0.00,,,0.00,WUHU216HW,2013-04-10 04:47:00,
2013-04-09 21:52:00,54.0,46.3,30.16,North,0,0.0,0.0,75,0.00,,,0.00,WUHU216HW,2013-04-10 04:52:00,
2013-04-09 21:57:00,54.0,46.3,30.16,North,0,0.0,0.0,75,0.00,,,0.00,WUHU216HW,2013-04-10 04:57:00,
2013-04-09 22:02:00,53.8,46.1,30.16,North,0,0.0,0.0,75,0.00,,,0.00,WUHU216HW,2013-04-10 05:02:00,
2013-04-09 22:07:00,53.6,45.9,30.16,North,0,0.0,0.0,75,0.00,,,0.00,WUHU216HW,2013-04-10 05:07:00,
2013-04-09 22:12:00,53.6,46.3,30.16,North,0,0.0,0.0,76,0.00,,,0.00,WUHU216HW,2013-04-10 05:12:00,
2013-04-09 22:17:00,53.6,46.3,30.16,North,0,0.0,0.0,76,0.00,,,0.00,WUHU216HW,2013-04-10 05:17:00,
2013-04-09 22:22:00,53.5,46.4,30.16,North,0,0.0,0.0,77,0.00,,,0.00,WUHU216HW,2013-04-10 05:22:00,
2013-04-09 22:27:00,53.5,46.1,30.16,North,0,0.0,0.0,76,0.00,,,0.00,WUHU216HW,2013-04-10 05:27:00,
2013-04-09 22:32:00,53.6,45.9,30.16,North,0,0.0,0.0,75,0.00,,,0.00,WUHU216HW,2013-04-10 05:32:00,
2013-04-09 22:38:00,53.5,45.7,30.16,North,0,0.0,0.0,75,0.00,,,0.00,WUHU216HW,2013-04-10 05:38:00,
2013-04-09 22:43:00,53.3,45.5,30.16,North,0,0.0,0.0,75,0.00,,,0.00,WUHU216HW,2013-04-10 05:43:00,
2013-04-09 22:48:00,53.3,45.9,30.16,North,0,0.0,0.0,76,0.00,,,0.00,WUHU216HW,2013-04-10 05:48:00,
2013-04-09 22:53:00,53.3,45.9,30.16,North,0,0.0,0.0,76,0.00,,,0.00,WUHU216HW,2013-04-10 05:53:00,
2013-04-09 22:58:00,53.5,45.7,30.16,North,0,0.0,0.0,75,0.00,,,0.00,WUHU216HW,2013-04-10 05:58:00,
2013-04-09 23:03:00,53.3,45.5,30.16,North,0,0.0,0.0,75,0.00,,,0.00,WUHU216HW,2013-04-10 06:03:00,
2013-04-09 23:08:00,53.3,45.5,30.16,North,0,0.0,0.0,75,0.00,,,0.00,WUHU216HW,2013-04-10 06:08:00,
2013-04-09 23:13:00,53.3,45.5,30.16,North,0,0.0,0.0,75,0.00,,,0.00,WUHU216HW,2013-04-10 06:13:00,
2013-04-09 23:18:00,53.3,45.9,30.16,North,0,0.0,0.0,76,0.00,,,0.00,WUHU216HW,2013-04-10 06:18:00,
2013-04-09 23:23:00,53.3,45.5,30.16,North,0,0.0,0.0,75,0.00,,,0.00,WUHU216HW,2013-04-10 06:23:00,
2013-04-09 23:28:00,53.1,45.7,30.16,North,0,0.0,0.0,76,0.00,,,0.00,WUHU216HW,2013-04-10 06:28:00,
2013-04-09 23:33:00,52.9,46.3,30.16,North,0,0.0,0.0,78,0.00,,,0.00,WUHU216HW,2013-04-10 06:33:00,
2013-04-09 23:38:00,52.7,46.1,30.16,North,0,0.0,0.0,78,0.00,,,0.00,WUHU216HW,2013-04-10 06:38:00,
2013-04-09 23:43:00,52.7,46.1,30.16,North,0,0.0,0.0,78,0.00,,,0.00,WUHU216HW,2013-04-10 06:43:00,
2013-04-09 23:48:00,52.7,45.7,30.16,North,0,0.0,0.0,77,0.00,,,0.00,WUHU216HW,2013-04-10 06:48:00,
2013-04-09 23:53:00,52.7,46.1,30.16,North,0,0.0,0.0,78,0.00,,,0.00,WUHU216HW,2013-04-10 06:53:00,
2013-04-09 23:58:00,52.6,45.9,30.16,North,0,0.0,0.0,78,0.00,,,0.00,WUHU216HW,2013-04-10 06:58:00,